sensor_id;sensor_type;location;lat;lon;timestamp;pressure;altitude;pressure_sealevel;temperature
66795;BMP280;53698;52.738;4.752;2022-07-06T00:01:31;102786.88;;;16.44
66795;BMP280;53698;52.738;4.752;2022-07-06T00:03:56;102789.00;;;16.52
66795;BMP280;53698;52.738;4.752;2022-07-06T00:06:23;102787.13;;;16.49
66795;BMP280;53698;52.738;4.752;2022-07-06T00:08:48;102785.69;;;16.45
66795;BMP280;53698;52.738;4.752;2022-07-06T00:11:14;102787.56;;;16.48
66795;BMP280;53698;52.738;4.752;2022-07-06T00:13:39;102783.91;;;16.51
66795;BMP280;53698;52.738;4.752;2022-07-06T00:16:04;102787.44;;;16.51
66795;BMP280;53698;52.738;4.752;2022-07-06T00:18:30;102782.72;;;16.52
66795;BMP280;53698;52.738;4.752;2022-07-06T00:20:55;102783.16;;;16.50
66795;BMP280;53698;52.738;4.752;2022-07-06T00:23:21;102777.56;;;16.54
66795;BMP280;53698;52.738;4.752;2022-07-06T00:25:46;102783.28;;;16.47
66795;BMP280;53698;52.738;4.752;2022-07-06T00:28:13;102779.94;;;16.40
66795;BMP280;53698;52.738;4.752;2022-07-06T00:30:39;102784.00;;;16.35
66795;BMP280;53698;52.738;4.752;2022-07-06T00:33:04;102773.50;;;16.30
66795;BMP280;53698;52.738;4.752;2022-07-06T00:35:30;102778.25;;;16.30
66795;BMP280;53698;52.738;4.752;2022-07-06T00:37:55;102786.38;;;16.21
66795;BMP280;53698;52.738;4.752;2022-07-06T00:40:20;102780.97;;;16.18
66795;BMP280;53698;52.738;4.752;2022-07-06T00:42:47;102781.38;;;16.16
66795;BMP280;53698;52.738;4.752;2022-07-06T00:45:14;102782.00;;;16.08
66795;BMP280;53698;52.738;4.752;2022-07-06T00:47:41;102784.25;;;15.97
66795;BMP280;53698;52.738;4.752;2022-07-06T00:50:08;102793.88;;;15.90
66795;BMP280;53698;52.738;4.752;2022-07-06T00:52:42;102787.69;;;15.86
66795;BMP280;53698;52.738;4.752;2022-07-06T00:55:12;102791.00;;;15.81
66795;BMP280;53698;52.738;4.752;2022-07-06T00:57:38;102789.00;;;15.81
66795;BMP280;53698;52.738;4.752;2022-07-06T01:00:05;102794.94;;;15.80
66795;BMP280;53698;52.738;4.752;2022-07-06T01:02:31;102790.31;;;15.77
66795;BMP280;53698;52.738;4.752;2022-07-06T01:04:57;102782.03;;;15.77
66795;BMP280;53698;52.738;4.752;2022-07-06T01:07:23;102781.63;;;15.78
66795;BMP280;53698;52.738;4.752;2022-07-06T01:09:48;102781.53;;;15.82
66795;BMP280;53698;52.738;4.752;2022-07-06T01:12:14;102777.91;;;15.85
66795;BMP280;53698;52.738;4.752;2022-07-06T01:14:39;102778.91;;;15.91
66795;BMP280;53698;52.738;4.752;2022-07-06T01:17:07;102772.56;;;15.94
66795;BMP280;53698;52.738;4.752;2022-07-06T01:19:32;102786.59;;;15.99
66795;BMP280;53698;52.738;4.752;2022-07-06T01:21:57;102777.88;;;16.00
66795;BMP280;53698;52.738;4.752;2022-07-06T01:24:23;102771.88;;;16.05
66795;BMP280;53698;52.738;4.752;2022-07-06T01:26:48;102768.03;;;16.15
66795;BMP280;53698;52.738;4.752;2022-07-06T01:29:14;102767.50;;;16.20
66795;BMP280;53698;52.738;4.752;2022-07-06T01:31:50;102772.50;;;16.25
66795;BMP280;53698;52.738;4.752;2022-07-06T01:34:18;102773.88;;;16.32
66795;BMP280;53698;52.738;4.752;2022-07-06T01:36:44;102766.59;;;16.38
66795;BMP280;53698;52.738;4.752;2022-07-06T01:39:10;102763.22;;;16.47
66795;BMP280;53698;52.738;4.752;2022-07-06T01:41:36;102770.59;;;16.62
66795;BMP280;53698;52.738;4.752;2022-07-06T01:44:02;102765.22;;;16.70
66795;BMP280;53698;52.738;4.752;2022-07-06T01:46:28;102759.63;;;16.74
66795;BMP280;53698;52.738;4.752;2022-07-06T01:48:53;102759.84;;;16.79
66795;BMP280;53698;52.738;4.752;2022-07-06T01:51:18;102757.31;;;16.84
66795;BMP280;53698;52.738;4.752;2022-07-06T01:53:45;102763.28;;;16.83
66795;BMP280;53698;52.738;4.752;2022-07-06T01:56:11;102763.91;;;16.87
66795;BMP280;53698;52.738;4.752;2022-07-06T01:58:37;102761.75;;;16.94
66795;BMP280;53698;52.738;4.752;2022-07-06T02:01:14;102767.25;;;16.94
66795;BMP280;53698;52.738;4.752;2022-07-06T02:03:41;102755.25;;;17.00
66795;BMP280;53698;52.738;4.752;2022-07-06T02:06:08;102769.91;;;16.98
66795;BMP280;53698;52.738;4.752;2022-07-06T02:08:34;102766.84;;;16.96
66795;BMP280;53698;52.738;4.752;2022-07-06T02:11:01;102763.19;;;16.98
66795;BMP280;53698;52.738;4.752;2022-07-06T02:13:28;102760.22;;;17.05
66795;BMP280;53698;52.738;4.752;2022-07-06T02:15:54;102765.06;;;17.01
66795;BMP280;53698;52.738;4.752;2022-07-06T02:18:19;102761.44;;;17.04
66795;BMP280;53698;52.738;4.752;2022-07-06T02:20:45;102769.16;;;16.97
66795;BMP280;53698;52.738;4.752;2022-07-06T02:23:10;102774.34;;;16.95
66795;BMP280;53698;52.738;4.752;2022-07-06T02:25:35;102771.00;;;16.88
66795;BMP280;53698;52.738;4.752;2022-07-06T02:28:01;102768.78;;;16.83
66795;BMP280;53698;52.738;4.752;2022-07-06T02:30:27;102766.56;;;16.78
66795;BMP280;53698;52.738;4.752;2022-07-06T02:32:52;102771.56;;;16.83
66795;BMP280;53698;52.738;4.752;2022-07-06T02:35:18;102755.53;;;16.78
66795;BMP280;53698;52.738;4.752;2022-07-06T02:37:43;102760.81;;;16.73
66795;BMP280;53698;52.738;4.752;2022-07-06T02:40:09;102766.13;;;16.67
66795;BMP280;53698;52.738;4.752;2022-07-06T02:42:35;102762.34;;;16.62
66795;BMP280;53698;52.738;4.752;2022-07-06T02:45:01;102762.75;;;16.48
66795;BMP280;53698;52.738;4.752;2022-07-06T02:47:27;102759.63;;;16.34
66795;BMP280;53698;52.738;4.752;2022-07-06T02:49:53;102765.53;;;16.20
66795;BMP280;53698;52.738;4.752;2022-07-06T02:52:19;102754.25;;;16.15
66795;BMP280;53698;52.738;4.752;2022-07-06T02:54:44;102769.63;;;16.00
66795;BMP280;53698;52.738;4.752;2022-07-06T02:57:10;102775.13;;;16.00
66795;BMP280;53698;52.738;4.752;2022-07-06T02:59:37;102773.69;;;15.96
66795;BMP280;53698;52.738;4.752;2022-07-06T03:02:04;102770.44;;;15.85
66795;BMP280;53698;52.738;4.752;2022-07-06T03:04:29;102770.66;;;15.75
66795;BMP280;53698;52.738;4.752;2022-07-06T03:06:55;102767.50;;;15.61
66795;BMP280;53698;52.738;4.752;2022-07-06T03:09:21;102765.88;;;15.48
66795;BMP280;53698;52.738;4.752;2022-07-06T03:11:47;102780.84;;;15.47
66795;BMP280;53698;52.738;4.752;2022-07-06T03:14:13;102780.16;;;15.43
66795;BMP280;53698;52.738;4.752;2022-07-06T03:16:41;102774.41;;;15.38
66795;BMP280;53698;52.738;4.752;2022-07-06T03:19:07;102778.03;;;15.35
66795;BMP280;53698;52.738;4.752;2022-07-06T03:21:33;102774.59;;;15.31
66795;BMP280;53698;52.738;4.752;2022-07-06T03:23:59;102775.84;;;15.27
66795;BMP280;53698;52.738;4.752;2022-07-06T03:26:25;102776.03;;;15.20
66795;BMP280;53698;52.738;4.752;2022-07-06T03:28:50;102778.75;;;15.04
66795;BMP280;53698;52.738;4.752;2022-07-06T03:31:16;102772.38;;;14.92
66795;BMP280;53698;52.738;4.752;2022-07-06T03:33:42;102776.78;;;14.86
66795;BMP280;53698;52.738;4.752;2022-07-06T03:36:08;102779.59;;;14.82
66795;BMP280;53698;52.738;4.752;2022-07-06T03:38:35;102783.13;;;14.83
66795;BMP280;53698;52.738;4.752;2022-07-06T03:41:00;102787.06;;;14.82
66795;BMP280;53698;52.738;4.752;2022-07-06T03:43:26;102784.00;;;14.80
66795;BMP280;53698;52.738;4.752;2022-07-06T03:45:52;102795.84;;;14.77
66795;BMP280;53698;52.738;4.752;2022-07-06T03:48:18;102786.91;;;14.73
66795;BMP280;53698;52.738;4.752;2022-07-06T03:50:44;102787.06;;;14.66
66795;BMP280;53698;52.738;4.752;2022-07-06T03:53:10;102792.25;;;14.61
66795;BMP280;53698;52.738;4.752;2022-07-06T03:55:35;102798.59;;;14.58
66795;BMP280;53698;52.738;4.752;2022-07-06T03:58:04;102790.78;;;14.57
66795;BMP280;53698;52.738;4.752;2022-07-06T04:00:30;102796.25;;;14.57
66795;BMP280;53698;52.738;4.752;2022-07-06T04:03:01;102793.09;;;14.58
66795;BMP280;53698;52.738;4.752;2022-07-06T04:05:30;102787.19;;;14.59
66795;BMP280;53698;52.738;4.752;2022-07-06T04:07:56;102789.78;;;14.66
66795;BMP280;53698;52.738;4.752;2022-07-06T04:10:27;102792.25;;;14.80
66795;BMP280;53698;52.738;4.752;2022-07-06T04:12:55;102790.25;;;14.99
66795;BMP280;53698;52.738;4.752;2022-07-06T04:15:20;102784.00;;;15.14
66795;BMP280;53698;52.738;4.752;2022-07-06T04:17:45;102788.75;;;15.29
66795;BMP280;53698;52.738;4.752;2022-07-06T04:20:18;102789.09;;;15.47
66795;BMP280;53698;52.738;4.752;2022-07-06T04:22:44;102786.25;;;15.66
66795;BMP280;53698;52.738;4.752;2022-07-06T04:25:09;102786.16;;;15.85
66795;BMP280;53698;52.738;4.752;2022-07-06T04:27:35;102783.50;;;15.97
66795;BMP280;53698;52.738;4.752;2022-07-06T04:30:02;102784.34;;;16.10
66795;BMP280;53698;52.738;4.752;2022-07-06T04:32:28;102782.16;;;16.17
66795;BMP280;53698;52.738;4.752;2022-07-06T04:34:54;102787.81;;;16.26
66795;BMP280;53698;52.738;4.752;2022-07-06T04:37:19;102784.00;;;16.35
66795;BMP280;53698;52.738;4.752;2022-07-06T04:39:45;102785.94;;;16.50
66795;BMP280;53698;52.738;4.752;2022-07-06T04:42:10;102783.38;;;16.56
66795;BMP280;53698;52.738;4.752;2022-07-06T04:44:35;102779.38;;;16.72
66795;BMP280;53698;52.738;4.752;2022-07-06T04:47:01;102781.34;;;16.84
66795;BMP280;53698;52.738;4.752;2022-07-06T04:49:27;102785.25;;;16.98
66795;BMP280;53698;52.738;4.752;2022-07-06T04:51:52;102792.78;;;17.10
66795;BMP280;53698;52.738;4.752;2022-07-06T04:54:18;102781.63;;;17.14
66795;BMP280;53698;52.738;4.752;2022-07-06T04:56:43;102781.28;;;17.24
66795;BMP280;53698;52.738;4.752;2022-07-06T04:59:09;102787.03;;;17.29
66795;BMP280;53698;52.738;4.752;2022-07-06T05:01:34;102781.19;;;17.27
66795;BMP280;53698;52.738;4.752;2022-07-06T05:03:59;102785.38;;;17.32
66795;BMP280;53698;52.738;4.752;2022-07-06T05:06:25;102782.38;;;17.38
66795;BMP280;53698;52.738;4.752;2022-07-06T05:08:50;102780.63;;;17.44
66795;BMP280;53698;52.738;4.752;2022-07-06T05:11:16;102785.25;;;17.47
66795;BMP280;53698;52.738;4.752;2022-07-06T05:13:42;102783.47;;;17.53
66795;BMP280;53698;52.738;4.752;2022-07-06T05:16:08;102787.44;;;17.64
66795;BMP280;53698;52.738;4.752;2022-07-06T05:18:33;102787.53;;;17.73
66795;BMP280;53698;52.738;4.752;2022-07-06T05:20:59;102789.19;;;17.83
66795;BMP280;53698;52.738;4.752;2022-07-06T05:23:25;102789.16;;;17.95
66795;BMP280;53698;52.738;4.752;2022-07-06T05:25:53;102791.16;;;17.94
66795;BMP280;53698;52.738;4.752;2022-07-06T05:28:18;102791.56;;;18.05
66795;BMP280;53698;52.738;4.752;2022-07-06T05:30:44;102789.03;;;17.98
66795;BMP280;53698;52.738;4.752;2022-07-06T05:33:11;102786.06;;;17.93
66795;BMP280;53698;52.738;4.752;2022-07-06T05:35:36;102785.41;;;17.89
66795;BMP280;53698;52.738;4.752;2022-07-06T05:38:03;102790.63;;;17.87
66795;BMP280;53698;52.738;4.752;2022-07-06T05:40:28;102783.75;;;17.91
66795;BMP280;53698;52.738;4.752;2022-07-06T05:42:54;102780.78;;;17.86
66795;BMP280;53698;52.738;4.752;2022-07-06T05:45:19;102796.28;;;17.83
66795;BMP280;53698;52.738;4.752;2022-07-06T05:47:45;102794.22;;;17.96
66795;BMP280;53698;52.738;4.752;2022-07-06T05:50:32;102794.59;;;18.19
66795;BMP280;53698;52.738;4.752;2022-07-06T05:52:59;102802.19;;;18.27
66795;BMP280;53698;52.738;4.752;2022-07-06T05:55:26;102798.84;;;18.32
66795;BMP280;53698;52.738;4.752;2022-07-06T05:57:53;102800.25;;;18.57
66795;BMP280;53698;52.738;4.752;2022-07-06T06:00:20;102797.19;;;18.76
66795;BMP280;53698;52.738;4.752;2022-07-06T06:02:51;102800.28;;;18.78
66795;BMP280;53698;52.738;4.752;2022-07-06T06:05:17;102804.03;;;18.93
66795;BMP280;53698;52.738;4.752;2022-07-06T06:07:44;102794.59;;;19.02
66795;BMP280;53698;52.738;4.752;2022-07-06T06:10:15;102795.75;;;18.93
66795;BMP280;53698;52.738;4.752;2022-07-06T06:12:42;102799.47;;;18.99
66795;BMP280;53698;52.738;4.752;2022-07-06T06:15:08;102801.84;;;19.09
66795;BMP280;53698;52.738;4.752;2022-07-06T06:17:35;102804.19;;;19.19
66795;BMP280;53698;52.738;4.752;2022-07-06T06:20:01;102807.63;;;19.32
66795;BMP280;53698;52.738;4.752;2022-07-06T06:22:27;102798.16;;;19.50
66795;BMP280;53698;52.738;4.752;2022-07-06T06:24:52;102792.63;;;19.50
66795;BMP280;53698;52.738;4.752;2022-07-06T06:27:18;102788.19;;;19.61
66795;BMP280;53698;52.738;4.752;2022-07-06T06:29:43;102793.00;;;19.70
66795;BMP280;53698;52.738;4.752;2022-07-06T06:32:12;102793.16;;;19.66
66795;BMP280;53698;52.738;4.752;2022-07-06T06:34:39;102785.47;;;19.70
66795;BMP280;53698;52.738;4.752;2022-07-06T06:37:05;102780.38;;;19.60
66795;BMP280;53698;52.738;4.752;2022-07-06T06:39:31;102785.31;;;19.73
66795;BMP280;53698;52.738;4.752;2022-07-06T06:41:56;102790.56;;;19.80
66795;BMP280;53698;52.738;4.752;2022-07-06T06:44:21;102786.09;;;19.74
66795;BMP280;53698;52.738;4.752;2022-07-06T06:46:50;102789.31;;;19.72
66795;BMP280;53698;52.738;4.752;2022-07-06T06:49:17;102793.19;;;19.75
66795;BMP280;53698;52.738;4.752;2022-07-06T06:51:42;102795.19;;;20.01
66795;BMP280;53698;52.738;4.752;2022-07-06T06:54:07;102794.91;;;20.25
66795;BMP280;53698;52.738;4.752;2022-07-06T06:56:33;102790.59;;;20.24
66795;BMP280;53698;52.738;4.752;2022-07-06T06:58:58;102803.53;;;20.27
66795;BMP280;53698;52.738;4.752;2022-07-06T07:01:23;102798.94;;;20.33
66795;BMP280;53698;52.738;4.752;2022-07-06T07:03:50;102800.44;;;20.51
66795;BMP280;53698;52.738;4.752;2022-07-06T07:06:16;102808.78;;;20.69
66795;BMP280;53698;52.738;4.752;2022-07-06T07:08:41;102813.22;;;20.22
66795;BMP280;53698;52.738;4.752;2022-07-06T07:11:07;102809.97;;;20.15
66795;BMP280;53698;52.738;4.752;2022-07-06T07:13:32;102810.28;;;20.26
66795;BMP280;53698;52.738;4.752;2022-07-06T07:15:57;102805.06;;;20.10
66795;BMP280;53698;52.738;4.752;2022-07-06T07:18:23;102807.84;;;20.10
66795;BMP280;53698;52.738;4.752;2022-07-06T07:20:48;102808.44;;;20.23
66795;BMP280;53698;52.738;4.752;2022-07-06T07:23:13;102804.19;;;20.31
66795;BMP280;53698;52.738;4.752;2022-07-06T07:25:39;102804.19;;;20.31
66795;BMP280;53698;52.738;4.752;2022-07-06T07:28:05;102805.09;;;20.37
66795;BMP280;53698;52.738;4.752;2022-07-06T07:30:30;102805.06;;;20.72
66795;BMP280;53698;52.738;4.752;2022-07-06T07:32:56;102799.63;;;20.77
66795;BMP280;53698;52.738;4.752;2022-07-06T07:35:22;102792.59;;;20.67
66795;BMP280;53698;52.738;4.752;2022-07-06T07:37:48;102793.53;;;20.64
66795;BMP280;53698;52.738;4.752;2022-07-06T07:40:13;102793.81;;;20.75
66795;BMP280;53698;52.738;4.752;2022-07-06T07:42:39;102792.91;;;20.52
66795;BMP280;53698;52.738;4.752;2022-07-06T07:45:07;102794.94;;;20.42
66795;BMP280;53698;52.738;4.752;2022-07-06T07:47:32;102799.84;;;20.21
66795;BMP280;53698;52.738;4.752;2022-07-06T07:49:57;102794.44;;;20.00
66795;BMP280;53698;52.738;4.752;2022-07-06T07:52:23;102796.13;;;19.98
66795;BMP280;53698;52.738;4.752;2022-07-06T07:54:48;102795.97;;;19.92
66795;BMP280;53698;52.738;4.752;2022-07-06T07:57:13;102795.22;;;20.18
66795;BMP280;53698;52.738;4.752;2022-07-06T07:59:39;102799.69;;;20.59
66795;BMP280;53698;52.738;4.752;2022-07-06T08:02:04;102792.66;;;20.99
66795;BMP280;53698;52.738;4.752;2022-07-06T08:04:30;102794.31;;;21.14
66795;BMP280;53698;52.738;4.752;2022-07-06T08:06:55;102795.72;;;21.41
66795;BMP280;53698;52.738;4.752;2022-07-06T08:09:20;102790.56;;;21.57
66795;BMP280;53698;52.738;4.752;2022-07-06T08:11:46;102785.84;;;21.80
66795;BMP280;53698;52.738;4.752;2022-07-06T08:14:11;102778.47;;;21.69
66795;BMP280;53698;52.738;4.752;2022-07-06T08:16:38;102780.56;;;21.82
66795;BMP280;53698;52.738;4.752;2022-07-06T08:19:04;102781.44;;;21.88
66795;BMP280;53698;52.738;4.752;2022-07-06T08:21:29;102786.81;;;21.92
66795;BMP280;53698;52.738;4.752;2022-07-06T08:23:55;102790.72;;;22.08
66795;BMP280;53698;52.738;4.752;2022-07-06T08:26:20;102777.69;;;22.28
66795;BMP280;53698;52.738;4.752;2022-07-06T08:28:46;102770.53;;;22.36
66795;BMP280;53698;52.738;4.752;2022-07-06T08:31:11;102778.28;;;21.95
66795;BMP280;53698;52.738;4.752;2022-07-06T08:33:37;102784.25;;;21.79
66795;BMP280;53698;52.738;4.752;2022-07-06T08:36:02;102783.09;;;21.94
66795;BMP280;53698;52.738;4.752;2022-07-06T08:38:28;102781.59;;;21.85
66795;BMP280;53698;52.738;4.752;2022-07-06T08:40:54;102791.25;;;21.98
66795;BMP280;53698;52.738;4.752;2022-07-06T08:43:20;102779.03;;;22.18
66795;BMP280;53698;52.738;4.752;2022-07-06T08:45:47;102773.31;;;22.36
66795;BMP280;53698;52.738;4.752;2022-07-06T08:48:14;102777.78;;;22.56
66795;BMP280;53698;52.738;4.752;2022-07-06T08:50:40;102780.31;;;22.45
66795;BMP280;53698;52.738;4.752;2022-07-06T08:53:06;102766.97;;;22.35
66795;BMP280;53698;52.738;4.752;2022-07-06T08:55:32;102778.75;;;22.16
66795;BMP280;53698;52.738;4.752;2022-07-06T08:57:58;102775.19;;;22.16
66795;BMP280;53698;52.738;4.752;2022-07-06T09:00:24;102768.19;;;22.20
66795;BMP280;53698;52.738;4.752;2022-07-06T09:02:50;102770.44;;;21.93
66795;BMP280;53698;52.738;4.752;2022-07-06T09:05:21;102771.28;;;22.22
66795;BMP280;53698;52.738;4.752;2022-07-06T09:07:50;102766.25;;;22.49
66795;BMP280;53698;52.738;4.752;2022-07-06T09:10:20;102764.81;;;22.67
66795;BMP280;53698;52.738;4.752;2022-07-06T09:12:47;102767.09;;;22.97
66795;BMP280;53698;52.738;4.752;2022-07-06T09:15:12;102768.38;;;22.68
66795;BMP280;53698;52.738;4.752;2022-07-06T09:17:39;102769.34;;;22.65
66795;BMP280;53698;52.738;4.752;2022-07-06T09:20:09;102763.97;;;22.61
66795;BMP280;53698;52.738;4.752;2022-07-06T09:22:35;102777.28;;;22.58
66795;BMP280;53698;52.738;4.752;2022-07-06T09:25:06;102757.50;;;22.98
66795;BMP280;53698;52.738;4.752;2022-07-06T09:27:37;102765.38;;;23.13
66795;BMP280;53698;52.738;4.752;2022-07-06T09:30:02;102757.03;;;22.99
66795;BMP280;53698;52.738;4.752;2022-07-06T09:32:28;102765.69;;;22.73
66795;BMP280;53698;52.738;4.752;2022-07-06T09:34:53;102756.28;;;22.71
66795;BMP280;53698;52.738;4.752;2022-07-06T09:37:21;102763.88;;;22.56
66795;BMP280;53698;52.738;4.752;2022-07-06T09:39:46;102763.06;;;22.42
66795;BMP280;53698;52.738;4.752;2022-07-06T09:42:12;102771.31;;;22.50
66795;BMP280;53698;52.738;4.752;2022-07-06T09:44:39;102773.13;;;22.39
66795;BMP280;53698;52.738;4.752;2022-07-06T09:47:09;102773.81;;;22.34
66795;BMP280;53698;52.738;4.752;2022-07-06T09:49:36;102771.09;;;22.40
66795;BMP280;53698;52.738;4.752;2022-07-06T09:52:04;102770.34;;;22.39
66795;BMP280;53698;52.738;4.752;2022-07-06T09:54:30;102763.31;;;22.66
66795;BMP280;53698;52.738;4.752;2022-07-06T09:56:57;102771.44;;;22.84
66795;BMP280;53698;52.738;4.752;2022-07-06T09:59:27;102762.81;;;22.68
66795;BMP280;53698;52.738;4.752;2022-07-06T10:01:55;102762.88;;;23.01
66795;BMP280;53698;52.738;4.752;2022-07-06T10:04:22;102763.53;;;23.11
66795;BMP280;53698;52.738;4.752;2022-07-06T10:06:49;102758.25;;;23.12
66795;BMP280;53698;52.738;4.752;2022-07-06T10:09:15;102766.50;;;23.21
66795;BMP280;53698;52.738;4.752;2022-07-06T10:11:45;102763.00;;;23.21
66795;BMP280;53698;52.738;4.752;2022-07-06T10:14:12;102759.00;;;23.41
66795;BMP280;53698;52.738;4.752;2022-07-06T10:16:40;102761.31;;;23.43
66795;BMP280;53698;52.738;4.752;2022-07-06T10:19:08;102761.81;;;23.27
66795;BMP280;53698;52.738;4.752;2022-07-06T10:21:38;102755.19;;;22.96
66795;BMP280;53698;52.738;4.752;2022-07-06T10:24:04;102763.25;;;23.09
66795;BMP280;53698;52.738;4.752;2022-07-06T10:26:30;102755.00;;;23.28
66795;BMP280;53698;52.738;4.752;2022-07-06T10:28:58;102755.69;;;23.09
66795;BMP280;53698;52.738;4.752;2022-07-06T10:31:24;102761.81;;;23.13
66795;BMP280;53698;52.738;4.752;2022-07-06T10:33:50;102752.75;;;23.32
66795;BMP280;53698;52.738;4.752;2022-07-06T10:36:16;102740.09;;;23.31
66795;BMP280;53698;52.738;4.752;2022-07-06T10:38:48;102748.56;;;23.22
66795;BMP280;53698;52.738;4.752;2022-07-06T10:41:14;102740.44;;;23.38
66795;BMP280;53698;52.738;4.752;2022-07-06T10:43:47;102730.09;;;23.58
66795;BMP280;53698;52.738;4.752;2022-07-06T10:46:17;102722.28;;;23.62
66795;BMP280;53698;52.738;4.752;2022-07-06T10:48:45;102710.25;;;23.70
66795;BMP280;53698;52.738;4.752;2022-07-06T10:51:11;102714.91;;;23.79
66795;BMP280;53698;52.738;4.752;2022-07-06T10:53:39;102706.41;;;23.68
66795;BMP280;53698;52.738;4.752;2022-07-06T10:56:09;102705.91;;;23.50
66795;BMP280;53698;52.738;4.752;2022-07-06T10:58:36;102710.50;;;23.72
66795;BMP280;53698;52.738;4.752;2022-07-06T11:01:03;102707.28;;;23.79
66795;BMP280;53698;52.738;4.752;2022-07-06T11:04:05;102709.44;;;24.09
66795;BMP280;53698;52.738;4.752;2022-07-06T11:06:36;102699.41;;;23.97
66795;BMP280;53698;52.738;4.752;2022-07-06T11:09:09;102704.25;;;23.97
66795;BMP280;53698;52.738;4.752;2022-07-06T11:11:41;102701.97;;;24.20
66795;BMP280;53698;52.738;4.752;2022-07-06T11:16:38;102712.75;;;24.32
66795;BMP280;53698;52.738;4.752;2022-07-06T11:19:09;102709.63;;;24.25
66795;BMP280;53698;52.738;4.752;2022-07-06T11:21:38;102717.69;;;24.42
66795;BMP280;53698;52.738;4.752;2022-07-06T11:24:05;102697.59;;;24.38
66795;BMP280;53698;52.738;4.752;2022-07-06T11:26:31;102715.44;;;24.46
66795;BMP280;53698;52.738;4.752;2022-07-06T11:28:59;102711.56;;;25.29
66795;BMP280;53698;52.738;4.752;2022-07-06T11:31:27;102688.84;;;25.57
66795;BMP280;53698;52.738;4.752;2022-07-06T11:33:52;102685.72;;;25.90
66795;BMP280;53698;52.738;4.752;2022-07-06T11:36:20;102683.75;;;26.28
66795;BMP280;53698;52.738;4.752;2022-07-06T11:38:48;102681.19;;;26.14
66795;BMP280;53698;52.738;4.752;2022-07-06T11:41:15;102691.59;;;25.98
66795;BMP280;53698;52.738;4.752;2022-07-06T11:43:42;102677.38;;;25.50
66795;BMP280;53698;52.738;4.752;2022-07-06T11:46:23;102684.22;;;26.11
66795;BMP280;53698;52.738;4.752;2022-07-06T11:48:50;102694.88;;;25.96
66795;BMP280;53698;52.738;4.752;2022-07-06T11:51:16;102694.56;;;25.32
66795;BMP280;53698;52.738;4.752;2022-07-06T11:54:02;102697.59;;;25.29
66795;BMP280;53698;52.738;4.752;2022-07-06T11:56:29;102684.44;;;25.40
66795;BMP280;53698;52.738;4.752;2022-07-06T11:58:57;102687.53;;;25.99
66795;BMP280;53698;52.738;4.752;2022-07-06T12:01:24;102675.16;;;25.59
66795;BMP280;53698;52.738;4.752;2022-07-06T12:03:51;102686.81;;;24.76
66795;BMP280;53698;52.738;4.752;2022-07-06T12:06:21;102682.78;;;24.82
66795;BMP280;53698;52.738;4.752;2022-07-06T12:08:51;102682.22;;;24.78
66795;BMP280;53698;52.738;4.752;2022-07-06T12:11:24;102672.53;;;24.68
66795;BMP280;53698;52.738;4.752;2022-07-06T12:13:52;102675.00;;;25.37
66795;BMP280;53698;52.738;4.752;2022-07-06T12:16:18;102659.34;;;26.61
66795;BMP280;53698;52.738;4.752;2022-07-06T12:18:47;102663.38;;;26.22
66795;BMP280;53698;52.738;4.752;2022-07-06T12:21:15;102670.59;;;25.72
66795;BMP280;53698;52.738;4.752;2022-07-06T12:23:46;102668.84;;;24.87
66795;BMP280;53698;52.738;4.752;2022-07-06T12:26:18;102676.38;;;24.51
66795;BMP280;53698;52.738;4.752;2022-07-06T12:28:44;102681.63;;;24.39
66795;BMP280;53698;52.738;4.752;2022-07-06T12:31:10;102669.28;;;24.01
66795;BMP280;53698;52.738;4.752;2022-07-06T12:33:36;102666.31;;;23.65
66795;BMP280;53698;52.738;4.752;2022-07-06T12:36:14;102665.41;;;23.74
66795;BMP280;53698;52.738;4.752;2022-07-06T12:38:47;102664.38;;;23.71
66795;BMP280;53698;52.738;4.752;2022-07-06T12:41:33;102663.50;;;23.60
66795;BMP280;53698;52.738;4.752;2022-07-06T12:44:04;102671.13;;;23.65
66795;BMP280;53698;52.738;4.752;2022-07-06T12:46:38;102671.56;;;23.39
66795;BMP280;53698;52.738;4.752;2022-07-06T12:49:24;102661.63;;;23.18
66795;BMP280;53698;52.738;4.752;2022-07-06T12:51:50;102659.53;;;23.13
66795;BMP280;53698;52.738;4.752;2022-07-06T12:54:17;102662.13;;;23.17
66795;BMP280;53698;52.738;4.752;2022-07-06T12:57:08;102669.69;;;22.83
66795;BMP280;53698;52.738;4.752;2022-07-06T12:59:38;102664.72;;;22.73
66795;BMP280;53698;52.738;4.752;2022-07-06T13:02:08;102672.09;;;23.23
66795;BMP280;53698;52.738;4.752;2022-07-06T13:04:35;102667.75;;;22.89
66795;BMP280;53698;52.738;4.752;2022-07-06T13:07:01;102674.50;;;22.68
66795;BMP280;53698;52.738;4.752;2022-07-06T13:09:28;102664.25;;;22.32
66795;BMP280;53698;52.738;4.752;2022-07-06T13:11:53;102661.00;;;22.61
66795;BMP280;53698;52.738;4.752;2022-07-06T13:14:20;102662.50;;;22.77
66795;BMP280;53698;52.738;4.752;2022-07-06T13:16:46;102664.44;;;22.85
66795;BMP280;53698;52.738;4.752;2022-07-06T13:19:12;102655.66;;;22.92
66795;BMP280;53698;52.738;4.752;2022-07-06T13:21:38;102665.28;;;22.77
66795;BMP280;53698;52.738;4.752;2022-07-06T13:24:04;102656.19;;;22.62
66795;BMP280;53698;52.738;4.752;2022-07-06T13:26:30;102658.56;;;22.83
66795;BMP280;53698;52.738;4.752;2022-07-06T13:28:59;102638.25;;;23.30
66795;BMP280;53698;52.738;4.752;2022-07-06T13:31:25;102636.88;;;23.20
66795;BMP280;53698;52.738;4.752;2022-07-06T13:33:50;102632.78;;;23.02
66795;BMP280;53698;52.738;4.752;2022-07-06T13:36:16;102635.28;;;23.00
66795;BMP280;53698;52.738;4.752;2022-07-06T13:38:41;102629.47;;;23.17
66795;BMP280;53698;52.738;4.752;2022-07-06T13:41:07;102639.38;;;22.85
66795;BMP280;53698;52.738;4.752;2022-07-06T13:43:32;102641.94;;;22.88
66795;BMP280;53698;52.738;4.752;2022-07-06T13:46:04;102630.88;;;22.94
66795;BMP280;53698;52.738;4.752;2022-07-06T13:48:30;102621.03;;;23.12
66795;BMP280;53698;52.738;4.752;2022-07-06T13:50:56;102616.53;;;23.34
66795;BMP280;53698;52.738;4.752;2022-07-06T13:53:21;102614.66;;;23.26
66795;BMP280;53698;52.738;4.752;2022-07-06T13:55:47;102617.75;;;23.13
66795;BMP280;53698;52.738;4.752;2022-07-06T13:58:12;102618.19;;;22.73